Time;durP1;ratioP1;P1;durP2;ratioP2;P2;SDS_P1;SDS_P2;PMS_P1;PMS_P2;Temp;Humidity;BMP_temperature;BMP_pressure;BME280_temperature;BME280_humidity;BME280_pressure;Samples;Min_cycle;Max_cycle;Signal;HPM_P1;HPM_P2
2023/11/19 00:01:58;;;;;;;19.80;13.00;;;;;;;5.01;63.87;99589.50;234172;216;139080;-58
2023/11/19 00:07:04;;;;;;;17.80;12.70;;;;;;;4.96;63.78;99578.02;234333;215;137980;-61
2023/11/19 00:12:07;;;;;;;19.10;12.90;;;;;;;4.95;63.98;99572.41;234410;213;147465;-61
2023/11/19 00:17:11;;;;;;;21.40;12.40;;;;;;;4.97;63.75;99572.73;234303;212;139664;-60
2023/11/19 00:22:14;;;;;;;18.50;13.20;;;;;;;5.00;63.85;99568.40;234185;215;137655;-60
2023/11/19 00:27:18;;;;;;;20.50;12.90;;;;;;;5.04;64.16;99566.38;234178;215;148370;-63
2023/11/19 00:32:21;;;;;;;19.50;13.20;;;;;;;5.06;64.01;99567.70;234254;215;138980;-63
2023/11/19 00:37:24;;;;;;;20.70;13.60;;;;;;;5.10;64.02;99558.63;234275;214;137623;-62
2023/11/19 00:42:27;;;;;;;19.10;12.90;;;;;;;5.09;63.98;99544.93;234437;215;148661;-62
2023/11/19 00:47:31;;;;;;;20.00;13.00;;;;;;;5.03;63.71;99534.20;234214;215;139128;-62
2023/11/19 00:52:34;;;;;;;17.80;12.80;;;;;;;5.06;63.99;99523.92;234278;213;140258;-62
2023/11/19 00:57:38;;;;;;;19.00;12.50;;;;;;;5.08;63.86;99517.17;234218;215;147349;-62
2023/11/19 01:02:41;;;;;;;16.80;12.10;;;;;;;4.98;63.67;99515.20;234290;215;138699;-63
2023/11/19 01:07:45;;;;;;;18.20;12.10;;;;;;;4.94;63.62;99500.54;234255;215;140268;-62
2023/11/19 01:12:48;;;;;;;19.80;12.50;;;;;;;4.95;63.66;99499.46;234267;216;147263;-62
2023/11/19 01:17:51;;;;;;;17.70;12.20;;;;;;;4.96;63.76;99499.59;234400;215;140902;-62
2023/11/19 01:22:56;;;;;;;18.40;12.90;;;;;;;5.00;63.96;99503.52;234270;208;138081;-62
2023/11/19 01:27:59;;;;;;;18.10;12.40;;;;;;;5.00;63.92;99494.21;234085;216;147480;-63
2023/11/19 01:33:02;;;;;;;19.20;13.10;;;;;;;5.03;64.51;99499.58;234198;216;140315;-63
2023/11/19 01:38:08;;;;;;;18.50;13.20;;;;;;;5.08;64.69;99500.11;234233;215;137632;-63
2023/11/19 01:43:11;;;;;;;18.20;13.90;;;;;;;5.10;64.57;99488.42;234320;216;147825;-62
2023/11/19 01:48:15;;;;;;;19.50;12.70;;;;;;;5.11;64.45;99485.58;234434;215;139000;-66
2023/11/19 01:53:18;;;;;;;19.50;12.70;;;;;;;5.11;64.49;99482.96;234242;215;136950;-61
2023/11/19 01:58:23;;;;;;;17.00;12.80;;;;;;;5.08;64.51;99474.61;234257;215;147578;-61
2023/11/19 02:03:29;;;;;;;18.30;13.10;;;;;;;5.06;64.72;99467.99;234221;212;141001;-61
2023/11/19 02:08:32;;;;;;;19.00;13.00;;;;;;;5.10;64.88;99460.84;234109;209;136571;-61
2023/11/19 02:13:37;;;;;;;20.20;13.90;;;;;;;5.12;64.75;99450.70;234296;216;148129;-61
2023/11/19 02:18:42;;;;;;;19.50;13.50;;;;;;;5.16;65.09;99447.09;234210;215;140584;-61
2023/11/19 02:23:46;;;;;;;20.00;13.50;;;;;;;5.18;64.28;99443.67;234427;216;136503;-61
2023/11/19 02:28:49;;;;;;;18.50;13.50;;;;;;;5.17;63.83;99429.48;234256;215;148277;-62
2023/11/19 02:33:53;;;;;;;19.50;13.80;;;;;;;5.17;64.02;99403.79;234222;215;139546;-62
2023/11/19 02:38:56;;;;;;;17.80;13.40;;;;;;;5.14;64.29;99388.23;234258;215;138410;-61
2023/11/19 02:43:59;;;;;;;21.50;14.50;;;;;;;5.13;64.66;99377.70;234200;215;148089;-62
2023/11/19 02:49:02;;;;;;;19.90;13.80;;;;;;;5.12;64.56;99367.73;234205;215;139362;-62
2023/11/19 02:54:05;;;;;;;18.90;14.20;;;;;;;5.10;64.25;99362.33;234390;216;136421;-62
2023/11/19 02:59:18;;;;;;;20.00;13.80;;;;;;;5.10;64.28;99362.67;234255;215;147506;-62
2023/11/19 03:04:23;;;;;;;17.40;13.00;;;;;;;5.11;64.98;99347.03;234252;215;138835;-62
2023/11/19 03:09:26;;;;;;;16.90;13.00;;;;;;;5.11;65.52;99332.41;234206;215;136783;-62
2023/11/19 03:14:29;;;;;;;19.30;13.50;;;;;;;5.12;65.70;99318.66;234317;216;148397;-63
2023/11/19 03:19:32;;;;;;;20.80;14.60;;;;;;;5.19;65.74;99306.98;234230;215;139012;-62
2023/11/19 03:24:35;;;;;;;23.10;15.00;;;;;;;5.24;65.63;99300.65;234399;213;137176;-61
2023/11/19 03:29:39;;;;;;;19.90;14.40;;;;;;;5.26;65.58;99292.32;234375;213;148220;-61
2023/11/19 03:34:42;;;;;;;22.90;15.70;;;;;;;5.27;65.58;99284.89;233946;213;139852;-61
2023/11/19 03:39:45;;;;;;;22.90;15.00;;;;;;;5.31;65.62;99270.67;234132;216;136581;-62
2023/11/19 03:44:49;;;;;;;22.00;14.70;;;;;;;5.30;65.79;99272.64;233654;216;147296;-61
2023/11/19 03:49:52;;;;;;;22.50;16.20;;;;;;;5.27;66.11;99276.45;234178;212;138735;-61
2023/11/19 03:54:57;;;;;;;22.40;16.20;;;;;;;5.30;66.25;99265.08;234310;215;137435;-61
2023/11/19 04:00:03;;;;;;;21.90;16.30;;;;;;;5.34;66.12;99249.63;234146;216;148256;-64
2023/11/19 04:05:14;;;;;;;25.90;17.30;;;;;;;5.22;66.36;99238.43;234119;216;138873;-61
2023/11/19 04:10:18;;;;;;;24.90;18.00;;;;;;;5.16;66.68;99224.77;234274;215;137868;-61
2023/11/19 04:15:22;;;;;;;27.10;18.10;;;;;;;5.14;66.85;99219.41;234178;213;149648;-61
2023/11/19 04:20:25;;;;;;;24.90;17.30;;;;;;;5.13;67.10;99223.67;234105;214;139645;-61
2023/11/19 04:25:29;;;;;;;31.30;20.90;;;;;;;5.09;67.19;99214.51;234283;216;137686;-62
2023/11/19 04:30:32;;;;;;;26.60;19.20;;;;;;;5.07;67.28;99203.85;234448;215;148555;-61
2023/11/19 04:35:36;;;;;;;32.80;19.70;;;;;;;5.08;67.42;99198.36;234069;215;138630;-61
2023/11/19 04:40:39;;;;;;;29.10;18.50;;;;;;;5.11;67.65;99199.64;234244;215;138342;-61
2023/11/19 04:45:42;;;;;;;30.70;20.90;;;;;;;5.15;67.71;99191.58;234319;215;148720;-61
2023/11/19 04:50:46;;;;;;;31.70;21.00;;;;;;;5.24;67.60;99163.98;233785;215;139093;-62
2023/11/19 04:55:49;;;;;;;31.60;20.80;;;;;;;5.26;67.38;99161.10;234329;215;136878;-64
2023/11/19 05:00:53;;;;;;;32.10;21.40;;;;;;;5.26;67.45;99154.23;234210;216;147765;-62
2023/11/19 05:05:56;;;;;;;34.50;22.30;;;;;;;5.34;67.30;99146.86;234389;216;138893;-62
2023/11/19 05:10:59;;;;;;;33.10;20.90;;;;;;;5.25;67.01;99159.18;234333;213;137656;-62
2023/11/19 05:16:02;;;;;;;27.30;19.90;;;;;;;5.14;67.05;99148.88;234285;213;148903;-62
2023/11/19 05:21:06;;;;;;;26.50;17.00;;;;;;;5.08;66.93;99147.01;233637;213;140538;-61
2023/11/19 05:26:10;;;;;;;28.30;18.90;;;;;;;5.08;66.72;99150.89;234321;215;136454;-61
2023/11/19 05:31:13;;;;;;;32.00;19.60;;;;;;;5.10;66.98;99145.50;234164;215;148156;-62
2023/11/19 05:36:17;;;;;;;29.80;17.60;;;;;;;5.12;66.58;99151.23;234365;209;138673;-62
2023/11/19 05:41:20;;;;;;;29.40;19.60;;;;;;;5.00;66.73;99143.26;234255;216;137764;-63
2023/11/19 05:46:25;;;;;;;27.70;18.40;;;;;;;5.03;67.04;99140.67;234240;213;148750;-62
2023/11/19 05:51:28;;;;;;;28.30;19.50;;;;;;;5.02;66.90;99141.44;234149;214;139009;-62
2023/11/19 05:56:32;;;;;;;32.90;21.30;;;;;;;5.03;67.03;99131.02;234234;215;137913;-62
2023/11/19 06:01:36;;;;;;;31.30;21.30;;;;;;;5.05;67.20;99107.90;234353;216;148225;-62
2023/11/19 06:06:40;;;;;;;31.80;21.20;;;;;;;5.05;67.34;99101.59;234183;215;139948;-62
2023/11/19 06:11:44;;;;;;;32.80;21.70;;;;;;;5.10;67.62;99100.16;234291;216;138338;-62
2023/11/19 06:16:47;;;;;;;35.20;22.60;;;;;;;5.17;67.33;99088.45;234292;216;148736;-62
2023/11/19 06:21:51;;;;;;;33.30;21.90;;;;;;;5.14;67.45;99102.11;234230;214;139334;-64
2023/11/19 06:26:54;;;;;;;34.10;21.80;;;;;;;5.15;67.53;99093.61;234250;215;138350;-62
2023/11/19 06:31:57;;;;;;;33.60;20.80;;;;;;;5.18;67.43;99084.18;234237;213;148121;-62
2023/11/19 06:37:03;;;;;;;31.60;20.80;;;;;;;5.17;67.51;99083.36;234246;216;141840;-62
2023/11/19 06:42:08;;;;;;;29.80;20.00;;;;;;;5.15;67.73;99100.31;234327;215;138332;-62
2023/11/19 06:47:11;;;;;;;30.60;20.30;;;;;;;5.13;67.77;99095.80;234261;215;147469;-62
2023/11/19 06:52:15;;;;;;;29.90;19.40;;;;;;;5.10;68.07;99097.33;234103;216;139303;-62
2023/11/19 06:57:20;;;;;;;29.10;19.10;;;;;;;5.10;68.23;99085.39;234247;215;136948;-61
2023/11/19 07:02:23;;;;;;;26.20;18.40;;;;;;;5.11;68.11;99078.32;234218;216;148217;-62
2023/11/19 07:07:33;;;;;;;28.00;18.90;;;;;;;5.11;68.18;99063.71;234178;215;139041;-61
2023/11/19 07:12:37;;;;;;;28.00;18.10;;;;;;;5.15;68.15;99062.48;234335;216;136868;-61
2023/11/19 07:17:40;;;;;;;28.50;18.50;;;;;;;5.17;68.36;99057.33;234382;215;147758;-62
2023/11/19 07:22:45;;;;;;;27.20;17.90;;;;;;;5.20;68.26;99037.48;234144;216;138872;-62
2023/11/19 07:27:49;;;;;;;92.20;59.20;;;;;;;5.36;69.02;99012.57;234255;216;138219;-63
2023/11/19 07:32:52;;;;;;;29.20;18.80;;;;;;;5.65;68.05;99005.05;234229;215;148038;-59
2023/11/19 07:37:57;;;;;;;118.50;84.10;;;;;;;5.80;67.43;99008.42;234175;215;138716;-59
2023/11/19 07:43:00;;;;;;;27.30;17.50;;;;;;;5.92;67.03;99014.61;234219;215;136737;-59
2023/11/19 07:48:04;;;;;;;25.40;15.90;;;;;;;5.89;66.19;99029.86;234418;216;147284;-59
2023/11/19 07:53:08;;;;;;;23.00;15.90;;;;;;;5.81;65.68;99024.59;234201;213;138820;-58
2023/11/19 07:58:12;;;;;;;27.50;15.50;;;;;;;5.78;65.41;99012.59;234296;215;137700;-63
2023/11/19 08:03:15;;;;;;;21.70;14.40;;;;;;;5.76;65.01;99003.68;234252;215;147509;-61
2023/11/19 08:08:19;;;;;;;16.40;11.20;;;;;;;5.80;64.00;98989.95;234287;213;139449;-59
2023/11/19 08:13:24;;;;;;;13.60;10.30;;;;;;;5.81;62.70;98971.40;234210;214;137623;-58
2023/11/19 08:18:28;;;;;;;26.00;18.80;;;;;;;5.80;62.42;98975.71;234309;216;148804;-61
2023/11/19 08:23:31;;;;;;;27.20;19.00;;;;;;;5.89;62.94;98968.44;234163;215;140239;-59
2023/11/19 08:28:34;;;;;;;15.30;11.20;;;;;;;6.03;61.80;98956.02;234167;214;137660;-59
2023/11/19 08:33:38;;;;;;;13.10;9.60;;;;;;;5.96;61.52;98939.13;234229;213;147466;-60
2023/11/19 08:38:42;;;;;;;15.00;10.20;;;;;;;5.93;61.59;98935.49;234262;213;138965;-57
2023/11/19 08:43:45;;;;;;;14.20;9.40;;;;;;;5.98;61.47;98943.77;234195;216;137230;-59
2023/11/19 08:48:48;;;;;;;43.20;28.70;;;;;;;6.07;61.27;98936.12;234248;215;147373;-60
2023/11/19 08:53:52;;;;;;;19.40;12.00;;;;;;;6.26;61.82;98933.15;234226;212;140090;-58
2023/11/19 08:58:55;;;;;;;13.30;9.80;;;;;;;6.22;60.56;98933.53;234127;213;136779;-58
2023/11/19 09:03:58;;;;;;;13.60;9.00;;;;;;;6.18;60.55;98933.00;234175;213;147753;-58
2023/11/19 09:09:05;;;;;;;13.00;9.80;;;;;;;6.20;60.66;98917.60;234205;214;138959;-58
2023/11/19 09:14:08;;;;;;;93.70;65.90;;;;;;;6.19;60.72;98916.73;234204;209;137274;-61
2023/11/19 09:19:11;;;;;;;18.30;10.50;;;;;;;6.23;60.80;98914.59;233638;213;148326;-60
2023/11/19 09:24:15;;;;;;;13.30;9.00;;;;;;;6.23;60.67;98905.79;233685;212;138670;-59
2023/11/19 09:29:19;;;;;;;13.40;9.70;;;;;;;6.23;60.27;98895.21;234143;212;137800;-54
2023/11/19 09:34:22;;;;;;;19.30;12.90;;;;;;;6.29;60.80;98876.08;234123;214;147754;-54
2023/11/19 09:39:25;;;;;;;16.50;11.80;;;;;;;6.57;61.76;98859.95;234129;216;139065;-53
2023/11/19 09:44:29;;;;;;;13.40;9.20;;;;;;;6.66;59.54;98844.38;234062;212;138882;-54
2023/11/19 09:49:34;;;;;;;14.10;9.40;;;;;;;6.49;59.35;98841.13;234170;214;147240;-54
2023/11/19 09:54:38;;;;;;;12.40;8.80;;;;;;;6.52;59.98;98821.27;234112;213;138690;-54
2023/11/19 09:59:42;;;;;;;12.00;8.90;;;;;;;6.54;59.93;98831.05;234224;209;137472;-55
2023/11/19 10:04:47;;;;;;;12.70;8.90;;;;;;;6.65;60.11;98830.67;234011;214;147538;-55
2023/11/19 10:09:50;;;;;;;12.10;9.00;;;;;;;6.64;59.37;98823.29;234173;213;140100;-52
2023/11/19 10:14:57;;;;;;;12.20;8.90;;;;;;;6.66;59.53;98811.23;234124;213;137498;-53
2023/11/19 10:20:01;;;;;;;13.50;8.40;;;;;;;6.80;59.70;98790.06;234131;213;147832;-54
2023/11/19 10:25:25;;;;;;;229.60;154.50;;;;;;;6.89;59.35;98783.45;234105;208;138952;-58
2023/11/19 10:30:29;;;;;;;16.60;11.00;;;;;;;7.00;59.17;98773.70;234293;209;137097;-52
2023/11/19 10:35:54;;;;;;;14.60;9.70;;;;;;;6.89;58.56;98774.61;233837;213;147443;-52
2023/11/19 10:41:00;;;;;;;14.30;9.50;;;;;;;6.90;58.96;98758.15;234073;213;140815;-54
2023/11/19 10:46:11;;;;;;;14.30;9.90;;;;;;;6.99;59.02;98744.65;234241;213;139089;-52
2023/11/19 10:51:22;;;;;;;14.20;9.00;;;;;;;7.01;58.91;98727.77;234140;214;148533;-53
2023/11/19 10:56:30;;;;;;;13.60;9.30;;;;;;;6.99;59.06;98720.83;234123;214;140416;-53
2023/11/19 11:01:43;;;;;;;268.00;169.60;;;;;;;7.01;58.87;98693.27;233898;213;138075;-56
2023/11/19 11:06:47;;;;;;;26.10;15.60;;;;;;;7.06;59.25;98686.77;234160;208;148476;-52
2023/11/19 11:11:52;;;;;;;14.30;10.10;;;;;;;7.05;58.73;98686.64;234261;215;139234;-55
2023/11/19 11:16:56;;;;;;;16.00;10.80;;;;;;;7.11;59.59;98664.84;234173;214;138696;-50
2023/11/19 11:22:03;;;;;;;11.10;7.80;;;;;;;7.13;58.24;98656.22;234226;213;148225;-51
2023/11/19 11:27:35;;;;;;;13.30;7.40;;;;;;;7.17;58.22;98639.97;234132;210;138814;-54
2023/11/19 11:32:45;;;;;;;14.50;8.20;;;;;;;7.23;57.28;98631.68;234167;215;138038;-53
2023/11/19 11:37:51;;;;;;;12.50;8.80;;;;;;;7.23;57.43;98621.48;234134;213;147689;-54
2023/11/19 11:42:55;;;;;;;20.80;14.40;;;;;;;7.25;58.19;98618.36;234031;213;139052;-53
2023/11/19 11:47:58;;;;;;;15.30;9.70;;;;;;;7.27;58.19;98599.56;234174;214;136845;-54
2023/11/19 11:53:05;;;;;;;286.00;207.60;;;;;;;7.28;58.35;98590.13;234132;214;149124;-53
2023/11/19 11:58:09;;;;;;;15.90;11.20;;;;;;;7.36;58.80;98602.42;234110;212;138783;-54
2023/11/19 12:03:13;;;;;;;13.20;9.80;;;;;;;7.29;58.42;98598.05;234107;214;137950;-51
2023/11/19 12:08:24;;;;;;;13.90;10.00;;;;;;;7.23;58.89;98591.67;234112;212;148899;-54
2023/11/19 12:14:06;;;;;;;12.70;9.30;;;;;;;7.22;60.01;98586.27;234113;213;138851;-54
2023/11/19 12:19:12;;;;;;;25.00;18.80;;;;;;;7.16;61.23;98570.70;234216;213;137800;-54
2023/11/19 12:24:17;;;;;;;9.50;6.70;;;;;;;7.09;61.58;98557.88;234224;213;147550;-54
2023/11/19 12:29:21;;;;;;;9.90;7.00;;;;;;;6.87;61.25;98547.95;234085;213;139044;-53
2023/11/19 12:34:24;;;;;;;9.30;6.40;;;;;;;6.77;61.81;98541.63;234226;212;136224;-52
2023/11/19 12:39:30;;;;;;;9.30;6.10;;;;;;;6.77;62.07;98527.20;234172;213;147554;-50
2023/11/19 12:44:34;;;;;;;9.20;5.80;;;;;;;6.79;62.65;98522.64;234228;213;138714;-54
2023/11/19 12:49:37;;;;;;;322.40;222.00;;;;;;;6.63;62.55;98517.02;234280;209;137272;-54
2023/11/19 12:54:40;;;;;;;14.10;9.10;;;;;;;6.51;63.94;98513.25;234265;214;148125;-53
2023/11/19 12:59:55;;;;;;;10.80;7.10;;;;;;;6.41;64.48;98507.12;234266;209;138943;-55
2023/11/19 13:04:58;;;;;;;9.80;6.90;;;;;;;6.27;64.91;98496.38;234067;213;140661;-55
2023/11/19 13:10:02;;;;;;;10.20;6.30;;;;;;;6.24;65.64;98490.39;234199;208;148751;-54
2023/11/19 13:15:06;;;;;;;8.10;6.00;;;;;;;6.24;66.02;98478.60;234089;213;138712;-56
2023/11/19 13:20:11;;;;;;;8.20;5.90;;;;;;;6.29;66.29;98473.41;234242;209;137106;-56
2023/11/19 13:25:14;;;;;;;7.80;5.50;;;;;;;6.31;65.93;98473.26;234163;213;148703;-55
2023/11/19 13:30:17;;;;;;;10.90;7.10;;;;;;;6.33;66.23;98470.73;234267;213;138758;-54
2023/11/19 13:35:24;;;;;;;33.80;24.20;;;;;;;6.49;70.74;98460.53;234212;213;137083;-53
2023/11/19 13:40:27;;;;;;;12.30;8.30;;;;;;;6.76;68.41;98458.33;234144;213;148932;-53
2023/11/19 13:45:30;;;;;;;8.10;6.00;;;;;;;6.60;67.48;98451.61;234128;213;140054;-53
2023/11/19 13:50:34;;;;;;;7.70;5.00;;;;;;;6.46;67.49;98447.80;234167;213;136265;-53
2023/11/19 13:55:37;;;;;;;8.20;5.50;;;;;;;6.32;67.77;98449.64;234199;208;149728;-55
2023/11/19 14:00:42;;;;;;;7.20;5.50;;;;;;;6.20;68.17;98445.72;234255;213;139083;-55
2023/11/19 14:05:46;;;;;;;;;;;;;;;6.08;68.57;98445.98;234277;213;138334;-55
2023/11/19 14:10:49;;;;;;;10.20;6.50;;;;;;;6.06;69.07;98444.50;234216;209;149237;-55
2023/11/19 14:15:52;;;;;;;8.10;5.50;;;;;;;6.03;69.31;98446.23;234171;213;138841;-54
2023/11/19 14:20:56;;;;;;;164.20;104.80;;;;;;;6.05;70.15;98439.14;234190;213;137130;-55
2023/11/19 14:25:59;;;;;;;7.50;5.40;;;;;;;6.36;70.65;98433.40;234077;214;148109;-54
2023/11/19 14:31:03;;;;;;;7.70;5.60;;;;;;;6.45;69.17;98432.18;234155;213;139824;-55
2023/11/19 14:36:07;;;;;;;7.30;5.60;;;;;;;6.44;68.81;98425.02;234239;208;137684;-54
2023/11/19 14:41:10;;;;;;;9.20;6.10;;;;;;;6.35;68.71;98420.20;234177;213;147663;-54
2023/11/19 14:46:13;;;;;;;8.50;6.00;;;;;;;6.24;69.00;98416.76;234071;213;140055;-57
2023/11/19 14:51:16;;;;;;;8.40;6.30;;;;;;;6.22;69.30;98413.20;234179;209;137408;-53
2023/11/19 14:56:19;;;;;;;9.30;6.60;;;;;;;6.13;69.53;98416.27;234207;213;147550;-55
2023/11/19 15:01:24;;;;;;;9.90;6.90;;;;;;;6.07;70.11;98409.92;234015;213;139691;-56
2023/11/19 15:06:28;;;;;;;9.70;6.20;;;;;;;6.05;70.65;98410.05;234228;214;137602;-55
2023/11/19 15:11:31;;;;;;;9.60;6.90;;;;;;;6.07;70.72;98403.24;234196;213;150338;-53
2023/11/19 15:16:34;;;;;;;9.60;6.10;;;;;;;6.10;70.81;98397.64;234212;209;139381;-55
2023/11/19 15:21:38;;;;;;;10.50;7.80;;;;;;;6.15;70.95;98393.48;234122;209;137565;-55
2023/11/19 15:26:41;;;;;;;10.30;6.90;;;;;;;6.20;70.73;98389.67;234089;212;147595;-56
2023/11/19 15:31:45;;;;;;;11.20;7.10;;;;;;;6.24;71.06;98380.46;234183;208;138881;-55
2023/11/19 15:36:48;;;;;;;10.70;7.70;;;;;;;6.23;71.06;98374.73;234142;213;138417;-54
2023/11/19 15:41:51;;;;;;;10.60;7.60;;;;;;;6.24;71.23;98370.24;234257;213;149199;-56
2023/11/19 15:46:54;;;;;;;12.60;7.70;;;;;;;6.31;71.23;98366.67;234094;213;138010;-54
2023/11/19 15:51:58;;;;;;;10.10;7.70;;;;;;;6.27;71.12;98370.99;234159;213;137361;-57
2023/11/19 15:57:01;;;;;;;12.60;8.30;;;;;;;6.20;71.54;98368.39;234086;214;148402;-56
2023/11/19 16:02:05;;;;;;;11.80;8.50;;;;;;;6.18;71.59;98369.02;234117;213;141091;-58
2023/11/19 16:07:08;;;;;;;34.00;25.40;;;;;;;6.27;73.57;98362.15;234178;213;137151;-57
2023/11/19 16:12:11;;;;;;;11.00;7.60;;;;;;;6.52;72.06;98356.21;234362;213;147295;-57
2023/11/19 16:17:15;;;;;;;15.90;9.10;;;;;;;6.48;71.47;98355.52;234085;213;140041;-60
2023/11/19 16:22:18;;;;;;;14.20;9.40;;;;;;;6.47;71.48;98354.20;234125;213;138495;-56
2023/11/19 16:27:24;;;;;;;14.40;9.20;;;;;;;6.47;71.65;98352.42;234178;214;149331;-56
2023/11/19 16:32:30;;;;;;;13.80;9.40;;;;;;;6.40;71.81;98346.64;234245;213;139911;-58
2023/11/19 16:37:34;;;;;;;13.50;8.60;;;;;;;6.37;71.94;98347.72;234182;213;138666;-59
2023/11/19 16:42:38;;;;;;;13.90;9.30;;;;;;;6.34;72.17;98351.41;234245;214;148534;-60
2023/11/19 16:47:42;;;;;;;13.40;9.20;;;;;;;6.29;72.35;98338.25;234093;208;138759;-55
2023/11/19 16:52:45;;;;;;;15.10;9.20;;;;;;;6.24;72.64;98329.79;234200;215;136621;-55
2023/11/19 16:57:48;;;;;;;12.60;8.90;;;;;;;6.20;72.85;98338.28;234245;215;147729;-58
2023/11/19 17:02:51;;;;;;;14.80;8.90;;;;;;;6.27;73.02;98337.14;234150;213;139293;-55
2023/11/19 17:07:54;;;;;;;15.00;9.70;;;;;;;6.32;73.16;98335.31;234149;213;136705;-57
2023/11/19 17:12:58;;;;;;;48.80;32.80;;;;;;;6.43;74.94;98332.89;234128;213;148422;-56
2023/11/19 17:18:01;;;;;;;15.30;12.10;;;;;;;6.98;74.78;98326.76;234220;214;139786;-54
2023/11/19 17:23:05;;;;;;;19.00;10.70;;;;;;;6.88;72.72;98324.67;234205;214;137746;-54
2023/11/19 17:28:09;;;;;;;16.10;10.40;;;;;;;6.82;72.71;98330.33;234186;214;147548;-54
2023/11/19 17:33:12;;;;;;;13.70;9.70;;;;;;;6.77;72.93;98332.94;234152;213;138928;-55
2023/11/19 17:38:16;;;;;;;15.40;10.20;;;;;;;6.75;73.11;98322.61;234183;213;137184;-53
2023/11/19 17:43:24;;;;;;;139.40;92.20;;;;;;;6.78;73.56;98305.16;234070;216;148681;-55
2023/11/19 17:48:27;;;;;;;16.10;11.70;;;;;;;7.04;73.81;98297.63;234282;215;139109;-55
2023/11/19 17:53:32;;;;;;;17.10;11.50;;;;;;;7.06;72.52;98305.28;234175;213;138252;-54
2023/11/19 17:58:36;;;;;;;16.60;11.70;;;;;;;6.91;72.63;98310.23;234125;214;148647;-52
2023/11/19 18:03:39;;;;;;;17.60;11.80;;;;;;;6.77;73.07;98308.57;234165;212;140115;-53
2023/11/19 18:08:44;;;;;;;20.30;12.60;;;;;;;6.67;73.67;98304.90;234223;213;137414;-55
2023/11/19 18:13:49;;;;;;;19.40;13.50;;;;;;;6.63;73.95;98305.51;234285;213;147924;-55
2023/11/19 18:18:52;;;;;;;19.10;12.70;;;;;;;6.60;74.15;98311.13;234290;207;139811;-58
2023/11/19 18:23:55;;;;;;;20.10;12.30;;;;;;;6.55;74.26;98300.88;234339;213;138500;-55
2023/11/19 18:28:59;;;;;;;21.90;13.90;;;;;;;6.58;74.25;98297.67;234195;212;148096;-59
2023/11/19 18:34:03;;;;;;;20.00;13.80;;;;;;;6.65;74.28;98294.65;234279;207;141328;-56
2023/11/19 18:39:09;;;;;;;99.30;76.10;;;;;;;6.75;74.99;98288.97;234147;213;137301;-59
2023/11/19 18:44:13;;;;;;;27.90;17.70;;;;;;;7.04;74.66;98293.79;234242;213;148900;-58
2023/11/19 18:49:18;;;;;;;25.50;15.50;;;;;;;7.03;73.53;98296.10;234198;208;140093;-58
2023/11/19 18:54:22;;;;;;;23.10;14.40;;;;;;;6.95;73.50;98302.77;234328;215;137176;-55
2023/11/19 18:59:25;;;;;;;23.10;14.60;;;;;;;6.87;73.87;98308.52;234202;215;147719;-56
2023/11/19 19:04:29;;;;;;;26.40;15.10;;;;;;;6.90;74.02;98309.42;234087;213;140894;-54
2023/11/19 19:09:33;;;;;;;23.00;14.80;;;;;;;7.00;74.08;98301.96;234191;212;137245;-55
2023/11/19 19:14:36;;;;;;;23.30;14.20;;;;;;;7.06;73.89;98293.98;234201;213;147561;-57
2023/11/19 19:19:39;;;;;;;21.30;14.30;;;;;;;7.07;73.85;98290.62;233868;213;141082;-56
2023/11/19 19:24:42;;;;;;;23.50;15.70;;;;;;;7.05;73.95;98285.74;234295;214;139010;-56
2023/11/19 19:29:46;;;;;;;24.00;14.80;;;;;;;7.07;73.98;98293.95;234235;213;149054;-57
2023/11/19 19:34:49;;;;;;;79.40;62.00;;;;;;;7.01;73.95;98295.91;234120;213;138642;-57
2023/11/19 19:39:55;;;;;;;31.30;18.50;;;;;;;7.16;74.91;98296.72;234027;209;137455;-59
2023/11/19 19:44:59;;;;;;;23.90;13.80;;;;;;;7.38;73.88;98298.42;234217;209;147556;-57
2023/11/19 19:50:10;;;;;;;21.90;13.50;;;;;;;7.36;73.25;98301.35;233984;214;141216;-56
2023/11/19 19:55:16;;;;;;;21.60;13.00;;;;;;;7.33;73.27;98303.27;234158;208;137682;-59
2023/11/19 20:00:19;;;;;;;21.70;13.20;;;;;;;7.31;73.24;98298.83;234338;212;258226;-57
2023/11/19 20:05:27;;;;;;;21.30;13.90;;;;;;;7.30;73.24;98296.96;234129;213;139006;-58
2023/11/19 20:10:32;;;;;;;20.90;13.30;;;;;;;7.28;73.39;98294.23;234243;208;139898;-58
2023/11/19 20:15:37;;;;;;;141.40;101.60;;;;;;;7.21;73.59;98288.52;234239;213;147229;-59
2023/11/19 20:20:40;;;;;;;22.80;13.50;;;;;;;7.34;74.02;98294.42;233985;212;140450;-61
2023/11/19 20:25:43;;;;;;;21.90;12.90;;;;;;;7.41;73.53;98289.23;234123;214;139282;-60
2023/11/19 20:30:46;;;;;;;19.90;12.40;;;;;;;7.43;73.24;98290.85;234271;212;148588;-61
2023/11/19 20:35:50;;;;;;;19.00;12.20;;;;;;;7.42;73.30;98290.96;234338;212;142449;-57
2023/11/19 20:40:53;;;;;;;19.40;12.30;;;;;;;7.39;73.43;98287.43;234127;213;137532;-57
2023/11/19 20:45:56;;;;;;;18.00;11.60;;;;;;;7.32;73.71;98278.48;234065;213;148843;-57
2023/11/19 20:50:59;;;;;;;21.20;12.00;;;;;;;7.25;74.18;98275.55;234119;212;138886;-57
2023/11/19 20:56:04;;;;;;;19.60;12.70;;;;;;;7.17;74.61;98287.19;234218;208;137860;-58
2023/11/19 21:01:07;;;;;;;19.80;11.50;;;;;;;7.17;75.08;98284.14;234257;211;149315;-57
2023/11/19 21:06:10;;;;;;;19.40;11.90;;;;;;;7.25;75.35;98289.66;234258;216;138900;-57
2023/11/19 21:11:13;;;;;;;18.60;11.40;;;;;;;7.32;75.48;98298.61;234230;208;140682;-57
2023/11/19 21:16:16;;;;;;;18.40;11.10;;;;;;;7.41;75.68;98306.58;233951;213;147639;-58
2023/11/19 21:21:21;;;;;;;19.40;11.50;;;;;;;7.49;75.87;98307.77;234222;212;139963;-58
2023/11/19 21:26:24;;;;;;;16.20;10.40;;;;;;;7.54;76.12;98309.07;234240;215;137348;-57
2023/11/19 21:31:27;;;;;;;15.60;9.60;;;;;;;7.56;76.37;98313.21;234268;213;147937;-58
2023/11/19 21:36:30;;;;;;;15.30;8.30;;;;;;;7.68;76.61;98315.96;234389;214;138570;-58
2023/11/19 21:41:33;;;;;;;15.80;8.40;;;;;;;7.81;76.74;98316.42;234220;213;137855;-58
2023/11/19 21:46:37;;;;;;;10.60;7.20;;;;;;;7.92;76.96;98314.34;234252;213;147627;-58
2023/11/19 21:51:40;;;;;;;13.90;7.10;;;;;;;8.01;77.17;98317.24;234040;213;138800;-58
2023/11/19 21:56:44;;;;;;;9.90;5.80;;;;;;;8.09;77.20;98317.13;234270;215;136734;-58
2023/11/19 22:01:47;;;;;;;12.00;6.70;;;;;;;8.15;77.30;98315.19;234290;208;147868;-58
2023/11/19 22:06:52;;;;;;;9.90;5.80;;;;;;;8.18;77.29;98310.90;234314;215;142439;-57
2023/11/19 22:11:56;;;;;;;7.70;4.90;;;;;;;8.23;77.53;98299.27;234442;214;137228;-58
2023/11/19 22:16:59;;;;;;;9.70;5.40;;;;;;;8.32;77.47;98306.29;234341;215;148155;-57
2023/11/19 22:22:03;;;;;;;10.60;5.60;;;;;;;8.40;77.51;98307.40;234239;215;139332;-57
2023/11/19 22:27:06;;;;;;;18.70;10.00;;;;;;;8.43;77.21;98301.55;234250;215;138703;-60
2023/11/19 22:32:09;;;;;;;18.70;10.60;;;;;;;8.37;76.60;98293.63;234315;213;147156;-58
2023/11/19 22:37:12;;;;;;;17.50;11.80;;;;;;;8.27;76.42;98298.27;234324;215;139190;-57
2023/11/19 22:42:15;;;;;;;19.00;10.70;;;;;;;8.17;76.34;98300.02;234335;215;137076;-57
2023/11/19 22:47:18;;;;;;;17.80;11.00;;;;;;;8.12;76.39;98300.50;234317;216;148190;-57
2023/11/19 22:52:22;;;;;;;19.30;11.40;;;;;;;8.14;76.35;98297.70;234299;215;138932;-57
2023/11/19 22:57:25;;;;;;;19.60;11.40;;;;;;;8.19;76.25;98288.56;234382;215;137793;-57
2023/11/19 23:02:29;;;;;;;17.50;11.90;;;;;;;8.21;76.12;98292.66;234266;211;147438;-58
2023/11/19 23:07:32;;;;;;;16.80;10.40;;;;;;;8.19;76.13;98293.89;234204;215;138997;-58
2023/11/19 23:12:35;;;;;;;16.60;10.70;;;;;;;8.14;76.20;98296.32;234434;215;137074;-57
2023/11/19 23:17:38;;;;;;;16.90;9.50;;;;;;;8.09;76.49;98300.16;234274;215;147672;-57
2023/11/19 23:22:43;;;;;;;15.20;9.10;;;;;;;8.10;76.58;98298.86;234289;215;141518;-57
2023/11/19 23:27:46;;;;;;;18.80;9.60;;;;;;;8.13;76.93;98293.72;234220;215;137760;-57